Time;durP1;ratioP1;P1;durP2;ratioP2;P2;SDS_P1;SDS_P2;PMS_P1;PMS_P2;Temp;Humidity;BMP_temperature;BMP_pressure;BME280_temperature;BME280_humidity;BME280_pressure;Samples;Min_cycle;Max_cycle;Signal;HPM_P1;HPM_P2
2021/03/16 00:04:05;;;;;;;1.08;0.93;;;;;;;6.61;53.73;97040.75;5082868;23;20203;-80
2021/03/16 00:06:30;;;;;;;0.85;0.57;;;;;;;6.63;53.92;97043.88;4919764;29;20088;-77
2021/03/16 00:09:40;;;;;;;1.17;0.73;;;;;;;6.64;54.35;97040.94;4915004;29;20063;-80
2021/03/16 00:12:06;;;;;;;3.47;0.68;;;;;;;6.67;54.11;97053.59;4929344;29;20074;-77
2021/03/16 00:14:31;;;;;;;0.57;0.52;;;;;;;6.68;53.67;97055.19;4931219;29;20499;-80
2021/03/16 00:16:57;;;;;;;0.50;0.50;;;;;;;6.67;53.79;97064.22;4905043;29;20024;-78
2021/03/16 00:19:22;;;;;;;0.70;0.70;;;;;;;6.70;54.08;97071.63;4905270;29;20028;-79
2021/03/16 00:21:48;;;;;;;0.80;0.55;;;;;;;6.70;54.55;97068.16;4907009;29;20027;-76
2021/03/16 00:24:13;;;;;;;0.40;0.40;;;;;;;6.71;53.99;97072.38;4891826;29;20036;-79
2021/03/16 00:26:39;;;;;;;0.60;0.60;;;;;;;6.70;54.45;97071.63;4888249;29;20100;-78
2021/03/16 00:29:05;;;;;;;0.70;0.65;;;;;;;6.74;54.31;97069.16;4885620;29;20469;-78
2021/03/16 00:31:31;;;;;;;0.85;0.70;;;;;;;6.75;53.99;97076.03;4915030;29;20039;-77
2021/03/16 00:33:56;;;;;;;1.05;0.60;;;;;;;6.78;54.47;97072.00;4885470;29;20517;-78
2021/03/16 00:36:22;;;;;;;1.55;0.50;;;;;;;6.79;54.34;97082.31;4919753;29;20488;-80
2021/03/16 00:38:48;;;;;;;0.77;0.70;;;;;;;6.80;54.18;97086.53;4903714;29;20028;-78
2021/03/16 00:41:13;;;;;;;0.52;0.52;;;;;;;6.80;54.25;97085.75;4916014;29;20029;-77
2021/03/16 00:43:39;;;;;;;0.47;0.45;;;;;;;6.81;53.74;97096.09;4903061;29;20032;-76
2021/03/16 00:46:04;;;;;;;0.80;0.50;;;;;;;6.78;53.75;97086.06;4902070;29;20218;-76
2021/03/16 00:54:33;;;;;;;1.13;0.60;;;;;;;6.83;54.35;97077.19;4919756;29;20047;-79
2021/03/16 00:56:58;;;;;;;1.90;0.60;;;;;;;6.81;54.06;97082.81;4894850;29;20033;-78
2021/03/16 00:59:23;;;;;;;1.23;0.60;;;;;;;6.83;54.06;97066.56;4889879;29;20041;-78
2021/03/16 01:01:49;;;;;;;0.55;0.50;;;;;;;6.84;54.16;97074.22;4889235;29;20032;-78
2021/03/16 01:04:14;;;;;;;0.90;0.85;;;;;;;6.85;54.32;97069.72;4896859;29;20123;-78
2021/03/16 01:06:40;;;;;;;1.20;0.47;;;;;;;6.84;54.22;97070.78;4899674;29;20530;-79
2021/03/16 01:09:05;;;;;;;0.75;0.60;;;;;;;6.83;54.28;97071.88;4903137;29;20104;-79
2021/03/16 01:11:31;;;;;;;0.80;0.50;;;;;;;6.83;54.07;97061.25;4892236;29;20039;-79
2021/03/16 01:14:03;;;;;;;0.43;0.43;;;;;;;6.85;54.29;97064.41;4885602;29;20063;-80
2021/03/16 01:16:28;;;;;;;0.95;0.60;;;;;;;6.85;54.40;97065.16;4917276;29;20040;-77
2021/03/16 01:18:54;;;;;;;0.60;0.60;;;;;;;6.85;54.33;97062.50;4902520;29;20515;-79
2021/03/16 01:21:19;;;;;;;1.02;0.60;;;;;;;6.87;54.21;97064.88;4894939;29;20043;-78
2021/03/16 01:23:44;;;;;;;0.60;0.60;;;;;;;6.87;53.74;97054.25;4912444;29;20080;-78
2021/03/16 01:26:10;;;;;;;0.85;0.70;;;;;;;6.85;54.23;97059.84;4902787;29;20051;-78
2021/03/16 01:28:35;;;;;;;5.00;1.67;;;;;;;6.83;53.46;97051.41;4902101;29;20031;-77
2021/03/16 01:31:01;;;;;;;2.03;0.75;;;;;;;6.87;54.19;97059.56;4917894;29;20039;-78
2021/03/16 01:33:27;;;;;;;1.92;1.23;;;;;;;6.86;53.49;97050.81;4902625;29;20028;-77
2021/03/16 01:35:52;;;;;;;0.70;0.70;;;;;;;6.86;54.10;97058.78;4902699;29;20032;-79
2021/03/16 01:38:18;;;;;;;1.10;0.85;;;;;;;6.85;53.97;97041.25;4903199;29;20099;-78
2021/03/16 01:40:44;;;;;;;0.55;0.55;;;;;;;6.85;53.81;97041.25;4917595;29;20059;-77
2021/03/16 01:43:13;;;;;;;0.90;0.57;;;;;;;6.81;53.12;97040.31;4916425;29;20036;-77
2021/03/16 01:45:40;;;;;;;1.10;0.65;;;;;;;6.78;53.28;97035.56;4902187;29;20044;-78
2021/03/16 01:48:07;;;;;;;0.55;0.50;;;;;;;6.80;53.01;97061.84;4902326;29;20416;-78
2021/03/16 01:50:33;;;;;;;1.40;0.60;;;;;;;6.78;53.33;97040.88;4889733;29;20099;-78
2021/03/16 01:53:00;;;;;;;0.90;0.70;;;;;;;6.77;53.81;97038.53;4894447;29;20067;-78
2021/03/16 01:55:30;;;;;;;1.13;0.88;;;;;;;6.77;53.94;97049.16;4908701;29;20036;-82
2021/03/16 01:58:04;;;;;;;0.45;0.45;;;;;;;6.69;53.47;97040.81;5061270;23;20015;-82
2021/03/16 02:00:36;;;;;;;0.60;0.60;;;;;;;6.72;53.50;97037.56;4900342;29;20053;-77
2021/03/16 02:03:01;;;;;;;0.85;0.68;;;;;;;6.68;53.16;97047.22;4886205;29;20048;-77
2021/03/16 02:05:27;;;;;;;0.98;0.88;;;;;;;6.67;53.45;97058.16;4883678;29;20028;-77
2021/03/16 02:08:27;;;;;;;0.63;0.50;;;;;;;6.68;52.93;97068.47;4898690;29;20052;-79
2021/03/16 02:11:04;;;;;;;0.50;0.50;;;;;;;6.71;53.89;97059.91;4895381;29;20088;-78
2021/03/16 02:13:45;;;;;;;0.65;0.50;;;;;;;6.72;53.13;97066.78;4899878;29;20036;-77
2021/03/16 02:16:19;;;;;;;0.88;0.73;;;;;;;6.69;53.42;97074.56;4902484;29;20040;-78
2021/03/16 02:18:49;;;;;;;1.48;0.70;;;;;;;6.72;53.37;97071.31;4901562;29;20416;-78
2021/03/16 02:21:19;;;;;;;0.73;0.73;;;;;;;6.70;53.53;97070.81;4880887;29;20036;-78
2021/03/16 02:24:25;;;;;;;0.63;0.63;;;;;;;6.70;53.47;97079.59;4883881;29;20100;-81
2021/03/16 02:27:05;;;;;;;1.08;0.73;;;;;;;6.67;53.67;97063.47;4900522;29;20040;-80
2021/03/16 02:29:52;;;;;;;0.80;0.68;;;;;;;6.65;53.92;97070.94;4890622;29;20040;-77
2021/03/16 02:32:24;;;;;;;0.85;0.85;;;;;;;6.63;53.68;97073.91;4900382;29;20040;-77
2021/03/16 02:34:54;;;;;;;1.20;0.63;;;;;;;6.65;53.88;97071.72;4881918;29;20035;-78
2021/03/16 02:37:21;;;;;;;0.75;0.63;;;;;;;6.66;53.40;97077.81;4883667;29;20454;-78
2021/03/16 02:39:49;;;;;;;1.10;0.60;;;;;;;6.65;53.95;97081.56;4884571;29;20025;-77
2021/03/16 02:42:16;;;;;;;0.90;0.65;;;;;;;6.64;53.72;97083.44;4868440;29;20048;-78
2021/03/16 02:44:42;;;;;;;1.75;0.70;;;;;;;6.65;53.80;97084.22;4885004;29;20504;-78
2021/03/16 02:47:09;;;;;;;0.63;0.60;;;;;;;6.65;53.74;97086.88;4882724;29;20052;-78
2021/03/16 02:49:41;;;;;;;1.35;0.65;;;;;;;6.62;54.14;97079.50;4883936;29;20480;-77
2021/03/16 02:52:09;;;;;;;0.73;0.57;;;;;;;6.66;53.78;97086.56;4900425;29;20033;-77
2021/03/16 02:54:35;;;;;;;0.30;0.30;;;;;;;6.64;53.33;97088.75;4899860;29;20032;-77
2021/03/16 02:57:01;;;;;;;0.45;0.45;;;;;;;6.64;53.95;97093.25;4881319;29;20643;-77
2021/03/16 02:59:28;;;;;;;0.68;0.68;;;;;;;6.63;54.37;97089.81;4882428;29;20060;-78
2021/03/16 03:01:55;;;;;;;0.73;0.60;;;;;;;6.66;53.97;97085.78;4878328;29;20033;-78
2021/03/16 03:04:22;;;;;;;1.75;0.57;;;;;;;6.64;54.14;97086.09;4871846;29;20646;-78
2021/03/16 03:06:49;;;;;;;1.27;0.65;;;;;;;6.61;54.25;97081.38;4864482;29;20033;-78
2021/03/16 03:09:15;;;;;;;0.95;0.80;;;;;;;6.61;54.16;97091.22;4866410;29;20044;-78
2021/03/16 03:11:40;;;;;;;1.05;0.50;;;;;;;6.57;54.75;97086.47;4897310;29;20036;-77
2021/03/16 03:14:08;;;;;;;2.10;0.65;;;;;;;6.57;54.52;97088.38;4883741;29;20060;-77
2021/03/16 03:16:34;;;;;;;1.80;0.60;;;;;;;6.55;54.35;97088.66;4876661;29;20507;-78
2021/03/16 03:18:59;;;;;;;0.60;0.60;;;;;;;6.54;54.45;97097.72;4883709;29;20033;-80
2021/03/16 03:21:32;;;;;;;0.60;0.60;;;;;;;6.55;54.32;97093.19;4876992;29;20033;-78
2021/03/16 03:24:06;;;;;;;0.60;0.57;;;;;;;6.53;54.35;97090.81;4869996;29;20039;-77
2021/03/16 03:26:42;;;;;;;0.82;0.63;;;;;;;6.53;54.42;97096.13;4869351;29;20029;-77
2021/03/16 03:29:10;;;;;;;1.27;0.55;;;;;;;6.54;54.66;97099.56;4882435;29;20025;-77
2021/03/16 03:31:36;;;;;;;0.50;0.50;;;;;;;6.53;54.62;97096.13;4882699;29;20036;-77
2021/03/16 03:34:05;;;;;;;1.85;0.75;;;;;;;6.52;54.68;97096.44;4885808;29;20040;-77
2021/03/16 03:36:34;;;;;;;0.95;0.70;;;;;;;6.54;55.19;97099.56;4883202;29;20044;-77
2021/03/16 03:39:00;;;;;;;0.60;0.50;;;;;;;6.53;54.85;97096.13;4901518;29;20041;-77
2021/03/16 03:41:28;;;;;;;0.63;0.50;;;;;;;6.52;55.39;97096.44;4898595;29;20037;-79
2021/03/16 03:43:55;;;;;;;;;;;;;;;6.55;55.13;97104.59;4912816;29;20028;-78
2021/03/16 03:46:21;;;;;;;0.75;0.75;;;;;;;6.55;55.26;97095.84;4881408;29;20395;-78
2021/03/16 03:48:48;;;;;;;0.80;0.60;;;;;;;6.59;55.35;97090.72;4871355;29;20044;-77
2021/03/16 03:51:14;;;;;;;0.55;0.47;;;;;;;6.56;55.28;97092.88;4868758;29;20056;-77
2021/03/16 03:53:40;;;;;;;0.45;0.45;;;;;;;6.56;56.03;97094.75;4886596;29;20037;-77
2021/03/16 03:56:07;;;;;;;0.52;0.50;;;;;;;6.50;56.22;97103.91;4873310;29;20029;-77
2021/03/16 03:58:37;;;;;;;0.75;0.40;;;;;;;6.48;56.09;97101.56;4887340;29;20033;-77
2021/03/16 04:01:02;;;;;;;0.43;0.43;;;;;;;6.44;56.55;97097.13;4876771;29;20060;-76
2021/03/16 04:03:28;;;;;;;1.65;0.50;;;;;;;6.37;57.11;97106.28;4864639;29;20629;-76
2021/03/16 04:05:54;;;;;;;0.55;0.55;;;;;;;6.36;56.92;97109.22;4886159;29;20048;-77
2021/03/16 04:08:21;;;;;;;0.82;0.52;;;;;;;6.34;57.83;97100.78;4887223;29;20040;-77
2021/03/16 04:10:47;;;;;;;0.80;0.57;;;;;;;6.31;57.89;97102.16;4886856;29;20039;-78
2021/03/16 04:13:12;;;;;;;0.52;0.50;;;;;;;6.29;57.75;97095.56;4884506;29;20281;-78
2021/03/16 04:15:38;;;;;;;1.77;0.57;;;;;;;6.28;57.82;97097.44;4873464;29;20029;-77
2021/03/16 04:18:04;;;;;;;0.95;0.40;;;;;;;6.29;58.47;97103.53;4892910;29;20036;-77
2021/03/16 04:20:30;;;;;;;1.38;0.88;;;;;;;6.25;58.41;97101.47;4879680;29;20169;-77
2021/03/16 04:22:55;;;;;;;1.48;0.68;;;;;;;6.27;58.26;97103.03;4868435;29;20033;-77
2021/03/16 04:25:21;;;;;;;0.80;0.60;;;;;;;6.25;58.13;97111.31;4864298;29;20504;-76
2021/03/16 04:27:46;;;;;;;1.35;0.90;;;;;;;6.23;58.57;97106.28;4866329;29;20063;-79
2021/03/16 04:30:12;;;;;;;0.60;0.60;;;;;;;6.19;59.21;97105.31;4882465;29;20041;-77
2021/03/16 04:32:38;;;;;;;1.10;0.60;;;;;;;6.20;58.82;97112.19;4892326;29;20032;-78
2021/03/16 04:35:03;;;;;;;0.40;0.40;;;;;;;6.20;58.52;97111.38;4880237;29;20041;-77
2021/03/16 04:37:29;;;;;;;0.43;0.43;;;;;;;6.17;58.74;97107.44;4879416;29;20421;-79
2021/03/16 04:39:54;;;;;;;0.93;0.30;;;;;;;6.14;58.40;97110.72;4868822;29;20489;-77
2021/03/16 04:42:20;;;;;;;0.73;0.60;;;;;;;6.10;59.03;97117.66;4875952;29;20127;-77
2021/03/16 04:44:45;;;;;;;0.68;0.40;;;;;;;6.08;59.58;97106.59;4879833;29;20453;-77
2021/03/16 04:47:11;;;;;;;1.00;0.90;;;;;;;6.04;59.37;97116.19;4876278;29;20089;-77
2021/03/16 04:49:36;;;;;;;0.85;0.60;;;;;;;6.00;59.95;97118.66;4880996;29;20073;-77
2021/03/16 04:52:02;;;;;;;1.20;0.40;;;;;;;5.95;59.49;97105.44;4868132;29;20041;-77
2021/03/16 04:54:27;;;;;;;1.48;0.50;;;;;;;5.93;60.16;97111.06;4881004;29;20061;-77
2021/03/16 04:56:54;;;;;;;0.88;0.50;;;;;;;5.93;59.47;97121.66;4875475;29;20577;-77
2021/03/16 04:59:19;;;;;;;1.65;0.40;;;;;;;5.91;59.52;97115.09;4881739;29;20048;-77
2021/03/16 05:01:44;;;;;;;0.40;0.40;;;;;;;5.91;59.91;97115.84;4886812;29;20033;-76
2021/03/16 05:04:10;;;;;;;0.65;0.50;;;;;;;5.91;59.91;97113.19;4862967;29;20537;-80
2021/03/16 05:06:35;;;;;;;0.95;0.40;;;;;;;5.91;60.16;97120.38;4865733;29;20040;-77
2021/03/16 05:09:01;;;;;;;0.60;0.60;;;;;;;5.90;60.13;97124.13;4870072;29;20120;-76
2021/03/16 05:11:26;;;;;;;0.70;0.50;;;;;;;5.89;59.90;97120.66;4888935;29;20486;-79
2021/03/16 05:13:52;;;;;;;0.90;0.55;;;;;;;5.88;59.82;97116.47;4873440;29;20030;-76
2021/03/16 05:16:21;;;;;;;0.70;0.68;;;;;;;5.90;59.86;97121.47;4897598;29;20443;-77
2021/03/16 05:18:49;;;;;;;0.93;0.65;;;;;;;5.92;60.31;97127.28;4903554;29;20057;-80
2021/03/16 05:21:16;;;;;;;1.25;0.70;;;;;;;5.95;59.99;97120.59;4888667;29;20049;-78
2021/03/16 05:23:42;;;;;;;0.40;0.38;;;;;;;5.97;59.84;97119.22;4901917;29;20043;-78
2021/03/16 05:26:07;;;;;;;1.38;0.40;;;;;;;5.99;59.23;97118.94;4886613;29;20033;-78
2021/03/16 05:28:33;;;;;;;1.08;0.57;;;;;;;6.01;59.11;97125.53;4884846;29;20092;-78
2021/03/16 05:30:58;;;;;;;0.30;0.30;;;;;;;6.06;59.28;97128.09;4885727;29;20092;-78
2021/03/16 05:33:24;;;;;;;1.13;0.50;;;;;;;6.09;59.23;97119.53;4883932;29;20136;-79
2021/03/16 05:35:49;;;;;;;1.30;0.40;;;;;;;6.14;58.76;97123.19;4883508;29;20422;-79
2021/03/16 05:38:15;;;;;;;0.98;0.45;;;;;;;6.16;58.96;97132.41;4883144;29;20515;-80
2021/03/16 05:40:41;;;;;;;1.48;0.50;;;;;;;6.19;58.35;97128.38;4885349;29;20550;-79
2021/03/16 05:43:07;;;;;;;0.77;0.40;;;;;;;6.21;58.72;97127.03;4900392;29;20116;-78
2021/03/16 05:45:32;;;;;;;1.17;0.45;;;;;;;6.28;58.66;97125.84;4883976;29;20083;-78
2021/03/16 05:47:59;;;;;;;1.23;0.40;;;;;;;6.30;58.73;97139.59;4886390;29;20386;-78
2021/03/16 05:50:24;;;;;;;2.58;0.60;;;;;;;6.31;59.17;97136.66;4884309;29;20040;-78
2021/03/16 05:52:54;;;;;;;0.50;0.50;;;;;;;6.31;58.40;97135.88;4881819;29;20636;-79
2021/03/16 05:55:19;;;;;;;1.10;0.68;;;;;;;6.36;58.48;97146.38;4898267;29;20035;-78
2021/03/16 05:57:49;;;;;;;0.75;0.68;;;;;;;6.39;58.56;97135.97;4882206;29;20029;-80
2021/03/16 06:00:15;;;;;;;1.02;0.77;;;;;;;6.40;58.23;97152.69;4884032;29;20557;-79
2021/03/16 06:02:40;;;;;;;0.32;0.32;;;;;;;6.41;58.12;97149.75;4898025;29;20111;-79
2021/03/16 06:05:06;;;;;;;0.45;0.45;;;;;;;6.44;57.83;97155.56;4882151;29;20120;-79
2021/03/16 06:07:32;;;;;;;0.57;0.40;;;;;;;6.44;57.14;97160.88;4883293;29;20037;-79
2021/03/16 06:09:57;;;;;;;0.30;0.30;;;;;;;6.45;57.43;97157.13;4886668;29;20110;-80
2021/03/16 06:12:31;;;;;;;0.47;0.47;;;;;;;6.50;57.40;97163.09;4885927;29;20064;-80
2021/03/16 06:14:57;;;;;;;2.05;1.05;;;;;;;6.49;56.69;97160.75;4886796;29;20119;-80
2021/03/16 06:17:23;;;;;;;0.43;0.43;;;;;;;6.50;56.48;97171.06;4883811;29;20076;-79
2021/03/16 06:19:48;;;;;;;1.80;0.43;;;;;;;6.50;56.92;97170.31;4882914;29;20068;-79
2021/03/16 06:22:21;;;;;;;0.70;0.50;;;;;;;6.50;56.95;97159.69;4880846;29;20477;-80
2021/03/16 06:24:47;;;;;;;0.75;0.55;;;;;;;6.49;57.26;97182.00;4881456;29;20088;-79
2021/03/16 06:27:23;;;;;;;0.50;0.50;;;;;;;6.51;57.25;97177.97;4882254;29;20088;-79
2021/03/16 06:29:49;;;;;;;0.68;0.60;;;;;;;6.50;57.96;97188.88;4898676;29;20119;-79
2021/03/16 06:32:16;;;;;;;0.40;0.40;;;;;;;6.51;57.42;97199.22;4882221;29;20033;-80
2021/03/16 06:34:42;;;;;;;0.75;0.70;;;;;;;6.49;56.88;97212.00;4881779;29;20127;-79
2021/03/16 06:37:08;;;;;;;0.95;0.50;;;;;;;6.48;57.37;97204.31;4881399;29;20035;-80
2021/03/16 06:39:33;;;;;;;0.32;0.32;;;;;;;6.49;57.76;97203.25;4880806;29;20419;-80
2021/03/16 06:41:58;;;;;;;0.55;0.55;;;;;;;6.51;57.85;97196.56;4880570;29;20033;-80
2021/03/16 06:44:24;;;;;;;0.93;0.93;;;;;;;6.49;57.48;97211.22;4881322;29;20517;-79
2021/03/16 06:46:52;;;;;;;0.77;0.68;;;;;;;6.50;57.96;97208.25;4881906;29;20029;-79
2021/03/16 06:49:20;;;;;;;1.15;0.43;;;;;;;6.48;56.97;97201.66;4881786;29;20079;-80
2021/03/16 06:51:46;;;;;;;2.38;0.80;;;;;;;6.49;57.53;97209.34;4882500;29;20040;-79
2021/03/16 06:54:15;;;;;;;0.90;0.68;;;;;;;6.48;56.84;97218.41;4884387;29;20036;-79
2021/03/16 06:56:49;;;;;;;1.00;0.98;;;;;;;6.50;56.54;97223.41;4885345;29;20032;-79
2021/03/16 06:59:27;;;;;;;0.40;0.40;;;;;;;6.53;56.20;97234.25;4885833;29;20066;-79
2021/03/16 07:01:53;;;;;;;1.60;0.80;;;;;;;6.54;56.46;97225.19;4886237;29;20126;-79
2021/03/16 07:04:21;;;;;;;1.02;0.60;;;;;;;6.57;56.64;97227.25;4886870;29;20192;-79
2021/03/16 07:06:48;;;;;;;1.58;0.75;;;;;;;6.62;57.17;97236.22;4902130;29;20029;-79
2021/03/16 07:09:16;;;;;;;1.85;0.40;;;;;;;6.64;57.09;97224.22;4883655;29;20041;-80
2021/03/16 07:11:48;;;;;;;1.00;0.90;;;;;;;6.67;56.51;97228.16;4884209;29;20032;-80
2021/03/16 07:14:17;;;;;;;0.60;0.60;;;;;;;6.71;55.63;97239.75;4883629;29;20131;-78
2021/03/16 07:16:44;;;;;;;1.95;0.70;;;;;;;6.72;55.90;97236.00;4884789;29;20032;-80
2021/03/16 07:19:11;;;;;;;0.93;0.85;;;;;;;6.73;55.54;97240.25;4886473;29;20024;-80
2021/03/16 07:21:51;;;;;;;1.60;1.35;;;;;;;6.75;55.04;97235.44;4886929;29;20044;-80
2021/03/16 07:24:27;;;;;;;0.40;0.40;;;;;;;6.74;54.83;97244.47;4887230;29;20032;-79
2021/03/16 07:26:56;;;;;;;2.90;0.63;;;;;;;6.78;54.52;97244.69;4887881;29;20128;-80
2021/03/16 07:29:23;;;;;;;0.93;0.70;;;;;;;6.78;54.56;97242.03;4886890;29;20036;-80
2021/03/16 07:31:50;;;;;;;0.60;0.60;;;;;;;6.81;54.09;97252.06;4887118;29;20386;-80
2021/03/16 07:34:20;;;;;;;1.52;0.70;;;;;;;6.84;54.02;97241.63;4887542;29;20031;-77
2021/03/16 07:36:51;;;;;;;1.23;0.90;;;;;;;6.88;54.14;97260.41;4887781;29;20041;-79
2021/03/16 07:39:22;;;;;;;0.75;0.52;;;;;;;6.89;54.97;97257.47;4885117;29;20128;-78
2021/03/16 07:41:51;;;;;;;1.17;0.50;;;;;;;6.91;54.02;97256.38;4887388;29;20091;-78
2021/03/16 07:44:22;;;;;;;0.45;0.45;;;;;;;6.87;52.98;97238.38;4886103;29;20041;-79
2021/03/16 07:47:01;;;;;;;0.50;0.50;;;;;;;6.90;53.43;97252.94;4888720;29;20040;-81
2021/03/16 07:49:38;;;;;;;2.55;0.60;;;;;;;6.89;53.58;97256.69;4903377;29;20128;-80
2021/03/16 07:52:23;;;;;;;0.25;0.25;;;;;;;6.89;54.29;97248.72;4887566;29;20064;-80
2021/03/16 07:54:53;;;;;;;0.50;0.50;;;;;;;6.87;53.46;97250.88;4897709;29;20140;-79
2021/03/16 07:57:31;;;;;;;0.65;0.30;;;;;;;6.88;53.71;97258.56;4896137;29;20047;-80
2021/03/16 08:00:06;;;;;;;0.60;0.40;;;;;;;6.93;53.88;97249.69;4895064;29;20063;-80
2021/03/16 08:02:36;;;;;;;1.95;0.50;;;;;;;6.94;53.94;97258.47;4894031;29;20072;-79
2021/03/16 08:05:15;;;;;;;0.77;0.73;;;;;;;6.96;53.38;97253.66;4887642;29;20087;-79
2021/03/16 08:07:42;;;;;;;0.65;0.65;;;;;;;6.99;53.38;97253.03;4903544;29;20096;-78
2021/03/16 08:10:12;;;;;;;0.50;0.50;;;;;;;7.02;53.57;97252.47;4886819;29;20033;-81
2021/03/16 08:12:57;;;;;;;0.93;0.63;;;;;;;7.05;53.82;97257.16;4872101;29;20056;-82
2021/03/16 08:15:59;;;;;;;0.70;0.65;;;;;;;7.11;53.96;97247.22;4890036;29;20026;-81
2021/03/16 08:18:34;;;;;;;0.80;0.77;;;;;;;7.15;54.20;97262.28;4891430;29;20047;-81
2021/03/16 08:21:36;;;;;;;1.02;0.50;;;;;;;7.22;54.01;97256.56;4887722;29;20025;-82
2021/03/16 08:24:49;;;;;;;0.52;0.52;;;;;;;7.25;53.44;97250.66;4903198;29;20040;-81
2021/03/16 08:27:25;;;;;;;0.98;0.70;;;;;;;7.28;52.61;97247.38;4878892;29;20070;-81
2021/03/16 08:29:58;;;;;;;0.90;0.82;;;;;;;7.30;52.47;97263.03;4900742;29;20033;-80
2021/03/16 08:32:26;;;;;;;0.75;0.75;;;;;;;7.33;51.91;97254.47;4885595;29;20040;-81
2021/03/16 08:34:54;;;;;;;0.88;0.70;;;;;;;7.36;52.23;97254.66;4882999;29;20111;-80
2021/03/16 08:37:26;;;;;;;;;;;;;;;7.43;52.93;97264.88;4884406;29;20036;-81
2021/03/16 08:39:53;;;;;;;1.02;0.60;;;;;;;7.49;52.09;97260.25;4883575;29;19911;-80
2021/03/16 08:42:24;;;;;;;1.05;0.50;;;;;;;7.52;52.23;97265.75;4885790;29;20122;-81
2021/03/16 08:45:05;;;;;;;1.95;0.60;;;;;;;7.57;51.66;97267.53;4871054;29;20033;-81
2021/03/16 08:47:40;;;;;;;0.70;0.68;;;;;;;7.60;50.91;97268.78;4889750;29;20132;-81
2021/03/16 08:50:11;;;;;;;0.82;0.52;;;;;;;7.61;50.96;97267.72;4906525;29;20136;-81
2021/03/16 08:52:58;;;;;;;0.47;0.47;;;;;;;7.63;50.76;97266.31;4889933;29;20040;-80
2021/03/16 08:55:28;;;;;;;0.73;0.50;;;;;;;7.63;50.77;97276.16;4902574;29;20106;-80
2021/03/16 08:58:18;;;;;;;0.85;0.63;;;;;;;7.63;50.39;97268.19;4886137;29;20036;-80
2021/03/16 09:00:57;;;;;;;1.25;0.60;;;;;;;7.62;50.44;97275.38;4549341;29;9978576;-80
2021/03/16 09:03:30;;;;;;;0.60;0.60;;;;;;;7.62;50.90;97270.06;4903726;29;20036;-80
2021/03/16 09:05:58;;;;;;;1.10;0.63;;;;;;;7.64;50.64;97275.88;4882916;29;20465;-80
2021/03/16 09:08:24;;;;;;;;;;;;;;;7.69;51.42;97275.00;4899787;29;20112;-80
2021/03/16 09:10:51;;;;;;;1.58;0.63;;;;;;;7.71;50.83;97277.34;4881889;29;19947;-80
2021/03/16 09:13:28;;;;;;;0.65;0.50;;;;;;;7.69;50.66;97269.66;4884401;29;20029;-80
2021/03/16 09:15:55;;;;;;;0.43;0.40;;;;;;;7.72;50.29;97274.38;4899697;29;20065;-81
2021/03/16 09:18:23;;;;;;;0.90;0.70;;;;;;;7.76;50.43;97271.91;4884768;29;20045;-80
2021/03/16 09:20:48;;;;;;;1.02;0.70;;;;;;;7.77;50.39;97260.94;4868533;29;20036;-80
2021/03/16 09:23:14;;;;;;;1.08;0.70;;;;;;;7.80;50.96;97273.66;4884849;29;20405;-80
2021/03/16 09:25:42;;;;;;;1.35;1.25;;;;;;;7.85;51.32;97260.25;4884786;29;20029;-80
2021/03/16 09:28:13;;;;;;;2.08;0.75;;;;;;;7.92;50.98;97264.34;4885041;29;20040;-79
2021/03/16 09:30:53;;;;;;;0.93;0.85;;;;;;;7.98;50.44;97271.94;4883194;29;20039;-80
2021/03/16 09:33:22;;;;;;;1.25;0.90;;;;;;;8.05;50.82;97266.16;4881902;29;20024;-80
2021/03/16 09:35:58;;;;;;;1.08;0.98;;;;;;;8.10;50.26;97254.63;4880254;29;20029;-79
2021/03/16 09:38:24;;;;;;;1.63;0.60;;;;;;;8.16;49.76;97267.50;4881204;29;20120;-81
2021/03/16 09:40:51;;;;;;;0.93;0.93;;;;;;;8.19;48.95;97266.13;4882135;29;20040;-81
2021/03/16 09:43:26;;;;;;;0.60;0.55;;;;;;;8.22;48.57;97270.81;4882529;29;20048;-81
2021/03/16 09:45:58;;;;;;;1.38;0.73;;;;;;;8.29;48.65;97263.19;4881400;29;20037;-81
2021/03/16 09:48:25;;;;;;;1.42;0.85;;;;;;;8.37;48.17;97272.31;4880854;29;20039;-81
2021/03/16 09:50:52;;;;;;;0.65;0.65;;;;;;;8.45;48.95;97274.25;4880553;29;20772;-81
2021/03/16 09:53:21;;;;;;;2.05;0.93;;;;;;;8.53;49.44;97279.97;4879963;29;20035;-80
2021/03/16 09:56:00;;;;;;;1.17;1.08;;;;;;;8.63;48.21;97267.16;4879818;29;20421;-79
2021/03/16 09:58:28;;;;;;;2.22;0.80;;;;;;;8.69;46.48;97267.81;4896509;29;20417;-78
2021/03/16 10:00:54;;;;;;;0.98;0.88;;;;;;;8.75;46.89;97279.13;4880491;29;20104;-79
2021/03/16 10:03:21;;;;;;;1.10;0.88;;;;;;;8.81;46.95;97280.56;4881857;29;20481;-79
2021/03/16 10:05:47;;;;;;;0.70;0.63;;;;;;;8.85;46.97;97283.38;4881218;29;20028;-79
2021/03/16 10:08:23;;;;;;;0.57;0.57;;;;;;;8.89;46.45;97276.38;4881401;29;20024;-81
2021/03/16 10:10:49;;;;;;;1.58;0.60;;;;;;;8.93;46.20;97288.75;4880026;29;20046;-81
2021/03/16 10:13:14;;;;;;;1.25;0.98;;;;;;;8.95;46.54;97288.47;4879864;29;20028;-80
2021/03/16 10:15:46;;;;;;;4.00;0.95;;;;;;;8.99;47.50;97289.41;4879099;29;20028;-82
2021/03/16 10:18:18;;;;;;;0.75;0.70;;;;;;;9.04;47.63;97291.16;4879257;29;20045;-81
2021/03/16 10:20:51;;;;;;;1.30;1.13;;;;;;;9.02;46.88;97304.81;4895945;29;20116;-81
2021/03/16 10:23:19;;;;;;;1.42;1.27;;;;;;;9.04;47.00;97301.81;4863589;29;20522;-82
2021/03/16 10:26:20;;;;;;;0.90;0.90;;;;;;;9.06;46.07;97295.09;4895981;29;20102;-81
2021/03/16 10:28:55;;;;;;;1.98;0.80;;;;;;;9.10;46.51;97308.59;4897700;29;20041;-82
2021/03/16 10:31:40;;;;;;;2.10;1.00;;;;;;;9.08;45.88;97303.56;4874050;29;20041;-82
2021/03/16 10:34:06;;;;;;;1.52;0.88;;;;;;;9.09;45.28;97307.00;4898591;29;20075;-81
2021/03/16 10:36:35;;;;;;;1.48;1.10;;;;;;;9.13;45.94;97306.09;4898098;29;20056;-80
2021/03/16 10:39:01;;;;;;;1.15;1.05;;;;;;;9.18;45.44;97309.69;4882813;29;20060;-79
2021/03/16 10:41:27;;;;;;;1.10;0.93;;;;;;;9.20;44.95;97304.84;4882783;29;20028;-80
2021/03/16 10:43:53;;;;;;;1.45;1.00;;;;;;;9.23;44.88;97314.91;4882804;29;20553;-80
2021/03/16 10:46:19;;;;;;;1.23;1.02;;;;;;;9.25;44.58;97300.16;4882703;29;20134;-80
2021/03/16 10:48:44;;;;;;;1.10;1.00;;;;;;;9.31;45.00;97305.34;4882440;29;20132;-79
2021/03/16 10:51:10;;;;;;;2.10;1.02;;;;;;;9.33;45.18;97303.94;4882859;29;20105;-82
2021/03/16 10:53:37;;;;;;;1.75;1.20;;;;;;;9.37;45.74;97304.09;4867158;29;20059;-82
2021/03/16 10:56:06;;;;;;;1.48;1.38;;;;;;;9.44;45.46;97309.78;4882615;29;20033;-83
2021/03/16 10:58:33;;;;;;;1.60;1.35;;;;;;;9.46;45.31;97318.25;4899610;29;20067;-82
2021/03/16 11:00:59;;;;;;;1.20;1.20;;;;;;;9.55;44.70;97323.63;4883837;29;20088;-82
2021/03/16 11:03:25;;;;;;;1.50;0.98;;;;;;;9.55;44.26;97308.38;4883653;29;20033;-81
2021/03/16 11:05:50;;;;;;;1.50;1.40;;;;;;;9.59;44.83;97319.22;4883592;29;20116;-81
2021/03/16 11:08:17;;;;;;;2.53;1.42;;;;;;;9.62;44.85;97313.25;4882916;29;20029;-81
2021/03/16 11:10:42;;;;;;;1.40;1.33;;;;;;;9.59;44.57;97303.19;4882512;29;20035;-82
2021/03/16 11:13:08;;;;;;;1.98;1.40;;;;;;;9.56;45.39;97322.53;4883822;29;20033;-81
2021/03/16 11:15:34;;;;;;;1.70;1.60;;;;;;;9.64;45.72;97328.97;4882324;29;20056;-84
2021/03/16 11:18:00;;;;;;;2.53;1.50;;;;;;;9.59;45.60;97319.22;4882692;29;20028;-81
2021/03/16 11:20:27;;;;;;;4.88;1.77;;;;;;;9.54;45.75;97319.38;4882596;29;20029;-82
2021/03/16 11:22:53;;;;;;;1.70;1.60;;;;;;;9.54;46.51;97343.38;4899156;29;20621;-82
2021/03/16 11:25:18;;;;;;;2.58;1.27;;;;;;;9.49;46.56;97332.88;4883252;29;20044;-81
2021/03/16 11:27:44;;;;;;;1.70;1.58;;;;;;;9.49;46.95;97330.19;4867429;29;20029;-81
2021/03/16 11:30:10;;;;;;;2.13;1.58;;;;;;;9.39;47.04;97347.28;4867504;29;20032;-81
2021/03/16 11:32:38;;;;;;;2.22;1.25;;;;;;;9.32;47.37;97347.72;4882023;29;20048;-82
2021/03/16 11:35:04;;;;;;;1.98;1.60;;;;;;;9.20;47.91;97350.97;4881701;29;20035;-81
2021/03/16 11:37:33;;;;;;;1.63;1.45;;;;;;;9.08;48.86;97335.56;4868063;29;20056;-81
2021/03/16 11:39:58;;;;;;;2.35;1.55;;;;;;;8.96;49.64;97362.81;4898242;29;20477;-83
2021/03/16 11:42:24;;;;;;;2.33;1.25;;;;;;;8.92;49.79;97356.53;4882773;29;20032;-80
2021/03/16 11:44:50;;;;;;;1.50;1.40;;;;;;;8.80;50.59;97365.06;4866641;29;20409;-81
2021/03/16 11:47:16;;;;;;;1.65;1.40;;;;;;;8.72;51.11;97365.81;4882949;29;20028;-81
2021/03/16 11:49:43;;;;;;;1.63;1.45;;;;;;;8.67;51.04;97365.94;4883660;29;20493;-81
2021/03/16 11:52:09;;;;;;;2.47;1.15;;;;;;;8.63;51.15;97378.31;4884395;29;20497;-81
2021/03/16 11:54:40;;;;;;;1.50;1.20;;;;;;;8.59;51.96;97370.13;4884486;29;20033;-82
2021/03/16 11:57:06;;;;;;;1.48;1.38;;;;;;;8.46;52.34;97385.06;4899353;29;20096;-80
2021/03/16 11:59:31;;;;;;;1.60;1.50;;;;;;;8.42;52.19;97377.97;4883085;29;20056;-81